Flight Track Log - Related Links

Times and Time Zones

All times are in EDT time to prevent confusion due to time zone crossing. See the N273SK flight status page for this flight to view local times or setup timezone preferences in your user account.

Time Position Orientation Groundspeed Altitude Reporting Facility
EDT Latitude Longitude Course Direction KTS MPH feet Rate Location/Type
Wed 06:09:25 AM 38.2100 -85.7389 355° North 176 203 2,000  Level FAA TRACON SMA TRACON (SMA)
Wed 06:09:44 AM 38.2264 -85.7447 344° North 192 221 2,700 2,700 Climbing FAA TRACON SMA TRACON (SMA)
Wed 06:10:05 AM 38.2483 -85.7525 344° North 210 242 3,800 3,000 Climbing FAA TRACON SMA TRACON (SMA)
Wed 06:10:24 AM 38.2664 -85.7581 346° North 215 247 4,700 2,550 Climbing FAA TRACON SMA TRACON (SMA)
Wed 06:10:45 AM 38.2850 -85.7644 345° North 223 257 5,500 2,780 Climbing FAA TRACON SMA TRACON (SMA)
Wed 06:11:05 AM 38.3078 -85.7753 340° North 228 262 6,600 3,000 Climbing FAA TRACON SMA TRACON (SMA)
Wed 06:11:25 AM 38.3264 -85.7842 339° North 231 266 7,500 2,769 Climbing FAA TRACON SMA TRACON (SMA)
Wed 06:11:44 AM 38.3453 -85.7939 338° Northwest 235 270 8,400 3,231 Climbing FAA TRACON SMA TRACON (SMA)
Wed 06:12:00 AM 38.2682 -85.9672 345° North  Level FlightAware Approximate
Wed 06:12:04 AM 38.3689 -85.8053 339° North 237 273 9,600  Level FAA TRACON SMA TRACON (SMA)
Wed 06:12:25 AM 38.3883 -85.8164 336° Northwest 244 281 10,000 1,350 Climbing FAA TRACON SMA TRACON (SMA)
Wed 06:12:44 AM 38.4100 -85.8267 340° North 262 302 10,500 1,650 Climbing FAA TRACON SMA TRACON (SMA)
Wed 06:13:00 AM 38.3852 -85.9833 North  Level FlightAware Approximate
Wed 06:13:05 AM 38.4386 -85.8400 340° North 283 326 11,100  Level FAA TRACON SMA TRACON (SMA)
Wed 06:13:24 AM 38.4639 -85.8475 347° North 299 344 11,600 1,950 Climbing FAA TRACON SMA TRACON (SMA)
Wed 06:13:45 AM 38.4953 -85.8592 344° North 308 354 12,400 2,550 Climbing FAA TRACON SMA TRACON (SMA)
Wed 06:14:00 AM 38.5037 -85.9856 355° North  Level FlightAware Approximate
Wed 06:14:04 AM 38.5189 -85.8739 334° Northwest 306 352 13,300  Level FAA TRACON SMA TRACON (SMA)
Wed 06:14:24 AM 38.5433 -85.8828 344° North 304 350 14,200 2,780 Climbing FAA TRACON SMA TRACON (SMA)
Wed 06:14:45 AM 38.5686 -85.8750 14° North 310 357 15,200 3,150 Climbing FAA TRACON SMA TRACON (SMA)
Wed 06:15:04 AM 38.5981 -85.8572 25° Northeast 309 356 16,300 3,150 Climbing FAA TRACON SMA TRACON (SMA)
Wed 06:15:25 AM 38.6200 -85.8392 33° Northeast 308 354 17,300 2,432 Climbing FAA TRACON SMA TRACON (SMA)
Wed 06:15:41 AM 38.6322 -85.8272 37° Northeast 303 349 17,800 1,816 Climbing Indianapolis Center
Wed 06:16:41 AM 38.6894 -85.7456 48° Northeast 306 352 19,600 1,636 Climbing Indianapolis Center
Wed 06:17:42 AM 38.7564 -85.6586 45° Northeast 335 386 21,100 1,537 Climbing Indianapolis Center
Wed 06:18:42 AM 38.8308 -85.5650 44° Northeast 370 426 22,700 1,537 Climbing Indianapolis Center
Wed 06:19:43 AM 38.9078 -85.4675 45° Northeast 386 444 24,200 1,475 Climbing Indianapolis Center
Wed 06:20:44 AM 38.9858 -85.3664 45° Northeast 395 455 25,700 1,488 Climbing Indianapolis Center
Wed 06:21:44 AM 39.0658 -85.2647 45° Northeast 402 463 27,200 1,488 Climbing Indianapolis Center
Wed 06:22:45 AM 39.1447 -85.1622 45° Northeast 402 463 28,700 1,438 Climbing Indianapolis Center
Wed 06:23:45 AM 39.2228 -85.0617 45° Northeast 402 463 30,100 1,438 Climbing Indianapolis Center
Wed 06:24:46 AM 39.3042 -84.9564 45° Northeast 410 472 31,600 1,488 Climbing Indianapolis Center
Wed 06:25:46 AM 39.3850 -84.8489 46° Northeast 413 475 33,100 1,438 Climbing Indianapolis Center
Wed 06:26:47 AM 39.4692 -84.7411 45° Northeast 419 482 34,500 934 Climbing Indianapolis Center
Wed 06:27:48 AM 39.5525 -84.6314 45° Northeast 424 488 35,000 298 Climbing Indianapolis Center
Wed 06:28:48 AM 39.6428 -84.5136 45° Northeast 451 519 35,100 942 Climbing Indianapolis Center
Wed 06:29:49 AM 39.7325 -84.3969 45° Northeast 450 518 36,900 934 Climbing Indianapolis Center
Wed 06:30:50 AM 39.8189 -84.2811 46° Northeast 442 509 37,000 50 Climbing Indianapolis Center
Wed 06:31:50 AM 39.9061 -84.1647 46° Northeast 444 511 37,000  Level Indianapolis Center
Wed 06:32:51 AM 39.9933 -84.0492 45° Northeast 442 509 37,000  Level Indianapolis Center
Wed 06:33:51 AM 40.0806 -83.9308 46° Northeast 445 512 37,000  Level Indianapolis Center
Wed 06:34:52 AM 40.1700 -83.8097 46° Northeast 453 521 37,000  Level Indianapolis Center
Wed 06:35:53 AM 40.2619 -83.6872 45° Northeast 463 533 37,000  Level Indianapolis Center
Wed 06:36:53 AM 40.3531 -83.5611 47° Northeast 468 539 37,000  Level Indianapolis Center
Wed 06:37:54 AM 40.4450 -83.4364 46° Northeast 468 539 37,000  Level Indianapolis Center
Wed 06:38:55 AM 40.5331 -83.3156 46° Northeast 455 524 37,000  Level Indianapolis Center
Wed 06:39:55 AM 40.6214 -83.1931 46° Northeast 456 525 37,000  Level Indianapolis Center
Wed 06:40:56 AM 40.7003 -83.0508 54° Northeast 460 529 37,000  Level Indianapolis Center
Wed 06:41:57 AM 40.7425 -82.8892 71° East 463 533 37,000  Level Indianapolis Center
Wed 06:42:50 AM 40.7783 -82.7467 72° East 451 519 37,000  Level Cleveland Center
Wed 06:43:50 AM 40.8211 -82.5778 71° East 459 528 37,000  Level Cleveland Center
Wed 06:44:50 AM 40.8611 -82.4197 71° East 459 528 37,000  Level Cleveland Center
Wed 06:45:50 AM 40.9033 -82.2533 71° East 464 534 37,000  Level Cleveland Center
Wed 06:46:50 AM 40.9431 -82.0922 72° East 464 534 37,000  Level Cleveland Center
Wed 06:47:50 AM 40.9869 -81.9228 71° East 469 540 37,000  Level Cleveland Center
Wed 06:48:50 AM 41.0264 -81.7556 73° East 469 540 37,000  Level Cleveland Center
Wed 06:49:50 AM 41.0656 -81.5883 73° East 476 548 37,000  Level Cleveland Center
Wed 06:50:50 AM 41.1083 -81.4208 71° East 476 548 37,000  Level Cleveland Center
Wed 06:51:50 AM 41.1514 -81.2561 71° East 476 548 37,000  Level Cleveland Center
Wed 06:52:50 AM 41.1917 -81.0825 73° East 481 554 37,000  Level Cleveland Center
Wed 06:53:50 AM 41.2319 -80.9200 72° East 474 545 37,000  Level Cleveland Center
Wed 06:54:50 AM 41.2719 -80.7489 73° East 474 545 37,000  Level Cleveland Center
Wed 06:55:50 AM 41.3117 -80.5831 72° East 474 545 37,000  Level Cleveland Center
Wed 06:56:50 AM 41.3511 -80.4144 73° East 474 545 37,000  Level Cleveland Center
Wed 06:57:50 AM 41.3864 -80.2650 72° East 479 551 37,000  Level Cleveland Center
Wed 06:58:50 AM 41.4189 -80.0764 77° East 479 551 37,000  Level Cleveland Center
Wed 06:59:50 AM 41.3992 -79.8967 98° East 470 541 37,000 50 Level Cleveland Center
Wed 07:00:50 AM 41.3814 -79.7197 98° East 476 548 37,100  Climbing Cleveland Center
Wed 07:01:50 AM 41.3653 -79.5400 97° East 483 556 37,000 -50 Descending Cleveland Center
Wed 07:02:50 AM 41.3489 -79.3633 97° East 483 556 37,000  Level Cleveland Center
Wed 07:03:50 AM 41.3303 -79.1867 98° East 483 556 37,000  Level Cleveland Center
Wed 07:04:50 AM 41.3092 -79.0047 99° East 489 563 37,000 -1,220 Level Cleveland Center
Wed 07:06:47 AM 41.2747 -78.6781 98° East 488 562 33,400 -1,364 Descending New York Center
Wed 07:07:46 AM 41.2572 -78.5022 97° East 488 562 33,000 -200 Descending New York Center
Wed 07:08:47 AM 41.2319 -78.3089 100° East 488 562 33,000  Level New York Center
Wed 07:09:47 AM 41.2139 -78.1328 98° East 488 562 33,000  Level New York Center
Wed 07:10:48 AM 41.1914 -77.9567 100° East 488 562 33,000 -50 Level New York Center
Wed 07:11:46 AM 41.1686 -77.7806 100° East 488 562 32,900 -807 Descending New York Center
Wed 07:12:47 AM 41.1456 -77.6017 100° East 488 562 31,400 -1,934 Descending New York Center
Wed 07:13:47 AM 41.1250 -77.4178 98° East 488 562 29,000 -2,450 Descending New York Center
Wed 07:14:47 AM 41.0992 -77.2417 101° East 488 562 26,500 -2,479 Descending New York Center
Wed 07:15:48 AM 41.0753 -77.0661 100° East 488 562 24,000 -2,479 Descending New York Center
Wed 07:16:48 AM 41.0531 -76.8933 100° East 488 562 21,500 -2,136 Descending New York Center
Wed 07:17:46 AM 41.0303 -76.7289 100° East 470 541 19,800 -1,373 Descending New York Center
Wed 07:18:46 AM 41.0042 -76.5836 103° East 453 521 18,800 -893 Descending New York Center
Wed 07:19:47 AM 40.9622 -76.4153 108° East 441 507 18,000 -397 Descending New York Center
Wed 07:20:47 AM 40.9236 -76.2608 108° East 436 502 18,000 -149 Level New York Center
Wed 07:21:48 AM 40.8925 -76.1211 106° East 430 495 17,700 -1,190 Descending New York Center
Wed 07:22:48 AM 40.8517 -75.9617 109° East 423 487 15,600 -2,034 Descending New York Center
Wed 07:23:46 AM 40.8200 -75.8303 108° East 423 487 13,700 -1,373 Descending New York Center
Wed 07:24:46 AM 40.7806 -75.6767 109° East 410 472 12,900 -744 Descending New York Center
Wed 07:25:47 AM 40.7456 -75.5672 113° Southeast 399 459 12,200 -885 Descending New York Center
Wed 07:26:48 AM 40.6992 -75.4189 112° Southeast 394 453 11,100 -1,068 Descending New York Center
Wed 07:27:45 AM 40.6583 -75.2903 113° Southeast 389 448 10,100 -504 Descending New York Center
Wed 07:28:47 AM 40.6119 -75.1450 113° Southeast 382 440 10,100  Level New York Center
Wed 07:29:48 AM 40.5728 -75.0194 112° Southeast 382 440 10,100  Level New York Center
Wed 07:30:46 AM 40.5372 -74.9000 111° Southeast 382 440 10,100 -49 Level New York Center
Wed 07:31:50 AM 40.5000 -74.7500 108° East 381 438 10,000 -48 Descending New York TRACON
Wed 07:32:50 AM 40.4500 -74.6333 119° Southeast 357 411 10,000 -989 Level New York TRACON
Wed 07:34:46 AM 40.4633 -74.4264 85° East 287 330 7,100 -1,023 Descending New York Center
Wed 07:35:46 AM 40.4872 -74.3294 72° East 282 325 7,000 -50 Descending New York Center
Wed 07:36:47 AM 40.5131 -74.2297 71° East 280 322 7,000 -397 Level New York Center
Wed 07:37:47 AM 40.5347 -74.1325 74° East 281 323 6,200 -1,268 Descending New York Center
Wed 07:38:50 AM 40.5333 -74.0333 91° East 268 308 4,400 -1,659 Descending New York TRACON
Wed 07:39:50 AM 40.6000 -74.0167 11° North 239 275 2,800 -800 Descending New York TRACON
Wed 07:40:50 AM 40.6500 -73.9833 27° Northeast 174 200 2,800  Level New York TRACON

Login

Don't have an account? Register now (free) for customized features, flight alerts, and more!